Colton, CA (92324)

11:58 PM PST on February 10, 2016 (GMT -0800)
Reche Canyon | | Change Station
CLOSE
Current Station
Personal Weather Station
Location: Colton, CA
Elevation: 1647 ft
Nearby Weather Stations

Elev 1647 ft 34.01 °N, 117.24 °W | Updated 14 seconds ago

Clear
Clear
54.9 °F
Feels Like 54.9 °F
N
0.9
Wind Variable Wind from ENE
Gusts 2.5 mph

Today
High -- | Low -- °F
--% Chance of Precip.
Yesterday
High -- | Low -- °F
Precip. -- in
Pressure 30.13 in
Visibility 10.0 miles
Clouds Clear
Dew Point 28 °F
Humidity 36%
Rainfall 0.00 in
Snow Depth Not available.
6:39 AM 5:28 PM
Waxing Crescent, 10% visible
METAR KRIV 110658Z AUTO 00000KT 10SM CLR 10/M02 A3015 RMK AO2 SLP202 T00981019
Pressure 30.13 in
Visibility 10.0 miles
Clouds Clear
Dew Point 28 °F
Humidity 36%
Rainfall 0.00 in
Snow Depth Not available.
6:39 AM 5:28 PM
Waxing Crescent, 10% visible
METAR KRIV 110658Z AUTO 00000KT 10SM CLR 10/M02 A3015 RMK AO2 SLP202 T00981019

10-Day Weather Forecast

Almanac

Astronomy

Feb. 10, 2016 Rise Set
Actual Time
Civil Twilight
Nautical Twilight
Astronomical Twilight
Moon
Length of Visible Light
Length of Day
Tomorrow will be .
, % of the Moon is Illuminated

Today's Extremes

State Highs State Lows

Community

WunderPhotos

Upload Photos

1,892,030 photos uploaded!

WunderBlog® & News

Nearby

Air Quality

  Air Quality AQ Index Pollutant
Not available.

Snow Depth

Station Depth Elevation

Earthquake Activity

City Distance Mag. Time & Date
Minimum magnitude displayed is 2.5.

Coastal Water Temperatures

Place Temperature

Stations

Nearby Weather Stations

Station Location Temp. Windchill Dew Point Humidity Wind Precip. Elev Updated Type
                   

Watches & Warnings

There are currently no watches in effect.